Portada
METAR-TAF:

METAR-TAF

Aeroports :

Fort-de-France, Martinica

latitud: 14-36N, longitud: 061-00W, altitud: 5 m

Observació

L'informe es va fer fa 17 minuts, a les 18:00 UTC
Vent 11 kt del Est
Temperatura 30°C
Humitat 62%
Pressió 1014 hPa
Visibilitat 10 km o més
Escasses núvols a una alçada de 3500 ft

METAR: TFFF 051800Z AUTO 10011KT 9999 FEW035 30/22 Q1014 NOSIG

Hora: 14:17 (18:17 UTC)

Pronòstic

L'informe es va fer fa 2 hores i 17 minuts, a les 16:00 UTC
Pronòstic vàlid del 05 a les 18 UTC al 06 a les 18 UTC
Vent 10 kt del Est
Visibilitat 10 km o més
Núvols disperses a una alçada de 3000 ft
Probabilitat 30% :
Temporalment
l' 06 a les 00 UTC al 06 a les 12 UTC
Vent 2 kt amb direcció variable

TAF: TFFF 051600Z 0518/0618 10010KT 9999 SCT030 PROB30 TEMPO 0600/0612 VRB02KT

Observacions i pronòstics meteorològics de més de 4000 aeroports (METAR i TAF).

Les estacions disponibles són els punts grocs i vermells al mapa.

Posi el ratolí al punt desitjat per veure el nom de l'estació.

Feu clic per veure les observacions i els pronòstics meteorològics.

Per canviar el mapa: feu clic els botons verds amb una creu de color negre per apropar; al botó verd amb un guió per allunyar la imatge; o en les fletxes verdes per a mapes adjacents.


METAR-TAF: